createdAt,value
2022-10-28T00:01:21.693Z,10.30
2022-10-28T00:03:58.396Z,10.30
2022-10-28T00:06:32.834Z,10.30
2022-10-28T00:09:00.189Z,10.30
2022-10-28T00:11:30.714Z,10.30
2022-10-28T00:14:00.146Z,10.20
2022-10-28T00:16:31.116Z,10.10
2022-10-28T00:19:02.234Z,10.10
2022-10-28T00:21:32.380Z,10.00
2022-10-28T00:23:59.730Z,9.90
2022-10-28T00:26:32.195Z,9.80
2022-10-28T00:29:02.321Z,9.70
2022-10-28T00:31:31.108Z,9.70
2022-10-28T00:34:04.350Z,9.70
2022-10-28T00:36:40.458Z,9.80
2022-10-28T00:39:22.580Z,9.80
2022-10-28T00:41:53.532Z,9.80
2022-10-28T00:44:59.698Z,9.70
2022-10-28T00:47:52.906Z,9.70
2022-10-28T00:50:47.369Z,9.70
2022-10-28T00:53:28.690Z,9.80
2022-10-28T00:55:59.629Z,9.80
2022-10-28T00:58:27.517Z,9.90
2022-10-28T01:00:54.641Z,9.80
2022-10-28T01:03:21.936Z,9.80
2022-10-28T01:05:49.550Z,9.80
2022-10-28T01:08:16.998Z,9.80
2022-10-28T01:10:52.721Z,9.80
2022-10-28T01:13:50.157Z,9.80
2022-10-28T01:16:54.216Z,9.90
2022-10-28T01:19:45.600Z,9.80
2022-10-28T01:22:24.644Z,9.60
2022-10-28T01:25:36.213Z,9.40
2022-10-28T01:28:49.906Z,9.40
2022-10-28T01:31:26.022Z,9.50
2022-10-28T01:34:01.415Z,9.40
2022-10-28T01:36:36.529Z,9.40
2022-10-28T01:39:16.954Z,9.50
2022-10-28T01:42:15.504Z,9.60
2022-10-28T01:45:19.793Z,9.60
2022-10-28T01:48:05.319Z,9.60
2022-10-28T01:50:46.802Z,9.60
2022-10-28T01:53:18.986Z,9.60
2022-10-28T01:55:49.410Z,9.50
2022-10-28T01:58:21.917Z,9.50
2022-10-28T02:00:49.493Z,9.50
2022-10-28T02:03:17.358Z,9.50
2022-10-28T02:05:53.665Z,9.50
2022-10-28T02:08:46.444Z,9.50
2022-10-28T02:11:54.157Z,9.50
2022-10-28T02:14:40.095Z,9.50
2022-10-28T02:17:40.002Z,9.50
2022-10-28T02:21:00.905Z,9.30
2022-10-28T02:24:16.064Z,9.10
2022-10-28T02:26:57.901Z,8.90
2022-10-28T02:29:39.421Z,8.80
2022-10-28T02:32:13.150Z,8.90
2022-10-28T02:34:47.210Z,8.90
2022-10-28T02:37:25.152Z,8.90
2022-10-28T02:39:57.489Z,8.90
2022-10-28T02:42:37.279Z,8.90
2022-10-28T02:45:13.801Z,8.80
2022-10-28T02:47:50.831Z,8.80
2022-10-28T02:50:22.520Z,8.70
2022-10-28T02:52:55.408Z,8.70
2022-10-28T02:55:25.347Z,8.70
2022-10-28T02:57:52.526Z,8.70
2022-10-28T03:00:25.223Z,8.70
2022-10-28T03:02:52.252Z,8.60
2022-10-28T03:05:19.172Z,8.70
2022-10-28T03:07:45.927Z,8.70
2022-10-28T03:10:12.728Z,8.60
2022-10-28T03:12:39.492Z,8.60
2022-10-28T03:15:07.080Z,8.60
2022-10-28T03:17:33.853Z,8.60
2022-10-28T03:20:00.637Z,8.60
2022-10-28T03:22:27.421Z,8.50
2022-10-28T03:24:54.217Z,8.60
2022-10-28T03:27:21.019Z,8.60
2022-10-28T03:29:47.781Z,8.60
2022-10-28T03:32:14.692Z,8.60
2022-10-28T03:34:41.597Z,8.60
2022-10-28T03:37:08.458Z,8.70
2022-10-28T03:39:35.832Z,8.60
2022-10-28T03:42:02.592Z,8.60
2022-10-28T03:44:29.489Z,8.60
2022-10-28T03:46:56.274Z,8.60
2022-10-28T03:49:23.138Z,8.60
2022-10-28T03:51:49.936Z,8.60
2022-10-28T03:54:16.738Z,8.70
2022-10-28T03:56:43.556Z,8.60
2022-10-28T03:59:10.659Z,8.70
2022-10-28T04:01:37.534Z,8.70
2022-10-28T04:04:04.758Z,8.60
2022-10-28T04:06:31.558Z,8.70
2022-10-28T04:08:58.428Z,8.60
2022-10-28T04:11:25.198Z,8.60
2022-10-28T04:13:52.029Z,8.60
2022-10-28T04:16:18.822Z,8.50
2022-10-28T04:18:45.722Z,8.40
2022-10-28T04:21:12.620Z,8.40
2022-10-28T04:23:39.401Z,8.40
2022-10-28T04:26:06.215Z,8.40
2022-10-28T04:28:33.120Z,8.40
2022-10-28T04:31:01.569Z,8.40
2022-10-28T04:33:28.996Z,8.30
2022-10-28T04:35:55.776Z,8.30
2022-10-28T04:40:55.404Z,8.30
2022-10-28T04:43:22.181Z,8.20
2022-10-28T04:45:48.956Z,8.20
2022-10-28T04:48:15.739Z,8.20
2022-10-28T04:50:42.577Z,8.20
2022-10-28T04:53:09.347Z,8.20
2022-10-28T04:55:36.129Z,8.20
2022-10-28T04:58:03.050Z,8.20
2022-10-28T05:00:30.537Z,8.20
2022-10-28T05:03:01.116Z,8.30
2022-10-28T05:05:27.898Z,8.30
2022-10-28T05:07:54.996Z,8.30
2022-10-28T05:10:22.111Z,8.30
2022-10-28T05:12:48.905Z,8.40
2022-10-28T05:15:15.878Z,8.50
2022-10-28T05:17:47.263Z,8.50
2022-10-28T05:20:17.325Z,8.60
2022-10-28T05:22:50.109Z,8.60
2022-10-28T05:25:17.956Z,8.80
2022-10-28T05:27:44.889Z,8.70
2022-10-28T05:30:13.001Z,8.70
2022-10-28T05:32:39.800Z,8.70
2022-10-28T05:35:07.570Z,8.80
2022-10-28T05:37:34.499Z,8.70
2022-10-28T05:40:01.271Z,8.70
2022-10-28T05:42:28.079Z,8.60
2022-10-28T05:44:54.843Z,8.50
2022-10-28T05:47:21.625Z,8.40
2022-10-28T05:49:48.402Z,8.40
2022-10-28T05:52:15.196Z,8.40
2022-10-28T05:54:41.952Z,8.50
2022-10-28T05:57:08.827Z,8.60
2022-10-28T05:59:35.627Z,8.60
2022-10-28T06:02:02.502Z,8.60
2022-10-28T06:04:29.577Z,8.70
2022-10-28T06:06:56.379Z,8.80
2022-10-28T06:09:23.170Z,8.80
2022-10-28T06:11:48.472Z,8.90
2022-10-28T06:14:15.258Z,8.80
2022-10-28T06:16:42.314Z,8.90
2022-10-28T06:19:09.094Z,9.00
2022-10-28T06:21:35.897Z,9.00
2022-10-28T06:24:03.047Z,9.20
2022-10-28T06:26:29.917Z,9.30
2022-10-28T06:28:56.709Z,9.30
2022-10-28T06:31:23.543Z,9.40
2022-10-28T06:33:50.383Z,9.40
2022-10-28T06:36:17.159Z,9.60
2022-10-28T06:38:44.017Z,9.60
2022-10-28T06:41:10.773Z,9.70
2022-10-28T06:43:37.574Z,9.70
2022-10-28T06:46:04.411Z,9.80
2022-10-28T06:48:32.707Z,9.90
2022-10-28T06:50:59.603Z,10.00
2022-10-28T06:53:26.431Z,10.00
2022-10-28T06:55:58.009Z,10.10
2022-10-28T06:58:26.198Z,10.30
2022-10-28T07:00:53.649Z,10.40
2022-10-28T07:03:20.432Z,10.70
2022-10-28T07:05:49.890Z,10.80
2022-10-28T07:08:17.118Z,11.00
2022-10-28T07:10:43.904Z,11.20
2022-10-28T07:13:10.750Z,11.40
2022-10-28T07:15:37.548Z,11.50
2022-10-28T07:18:04.568Z,11.60
2022-10-28T07:20:32.886Z,11.80
2022-10-28T07:23:02.267Z,12.10
2022-10-28T07:25:30.775Z,12.40
2022-10-28T07:27:58.915Z,12.80
2022-10-28T07:30:26.695Z,13.20
2022-10-28T07:32:54.314Z,13.80
2022-10-28T07:35:21.851Z,14.40
2022-10-28T07:37:48.655Z,15.00
2022-10-28T07:40:15.461Z,15.70
2022-10-28T07:42:42.263Z,16.20
2022-10-28T07:45:09.542Z,16.40
2022-10-28T07:47:36.354Z,17.10
2022-10-28T07:50:03.972Z,17.60
2022-10-28T07:52:30.813Z,18.00
2022-10-28T07:54:57.710Z,18.20
2022-10-28T07:57:24.493Z,18.50
2022-10-28T07:59:51.327Z,18.70
2022-10-28T08:02:22.863Z,19.10
2022-10-28T08:04:50.028Z,19.40
2022-10-28T08:07:18.220Z,19.70
2022-10-28T08:09:45.283Z,20.00
2022-10-28T08:12:16.076Z,19.80
2022-10-28T08:14:42.976Z,19.50
2022-10-28T08:17:10.378Z,19.00
2022-10-28T08:19:37.211Z,18.60
2022-10-28T08:22:04.374Z,18.20
2022-10-28T08:24:31.141Z,18.30
2022-10-28T08:26:58.011Z,18.30
2022-10-28T08:29:29.111Z,18.90
2022-10-28T08:31:57.753Z,19.40
2022-10-28T08:34:29.331Z,19.90
2022-10-28T08:36:57.102Z,20.40
2022-10-28T08:39:23.987Z,20.40
2022-10-28T08:42:05.090Z,20.50
2022-10-28T08:45:15.765Z,20.60
2022-10-28T08:48:11.565Z,20.50
2022-10-28T08:50:58.339Z,20.30
2022-10-28T08:53:37.036Z,20.50
2022-10-28T08:56:28.130Z,21.20
2022-10-28T08:59:00.253Z,21.20
2022-10-28T09:01:47.640Z,21.70
2022-10-28T09:04:40.440Z,21.40
2022-10-28T09:07:16.703Z,21.40
2022-10-28T09:09:47.224Z,21.00
2022-10-28T09:12:50.479Z,20.60
2022-10-28T09:15:32.196Z,20.40
2022-10-28T09:18:30.727Z,20.60
2022-10-28T09:21:03.426Z,20.90
2022-10-28T09:23:32.761Z,21.00
2022-10-28T09:26:28.338Z,21.60
2022-10-28T09:29:30.987Z,22.00
2022-10-28T09:32:36.091Z,22.20
2022-10-28T09:35:25.966Z,22.50
2022-10-28T09:38:16.080Z,23.30
2022-10-28T09:40:52.381Z,23.50
2022-10-28T09:43:34.203Z,23.40
2022-10-28T09:46:07.770Z,22.80
2022-10-28T09:48:39.572Z,22.00
2022-10-28T09:51:06.436Z,21.60
2022-10-28T09:53:39.850Z,21.20
2022-10-28T09:58:45.964Z,22.40
2022-10-28T10:01:13.843Z,23.20
2022-10-28T10:03:41.782Z,23.90
2022-10-28T10:06:16.668Z,24.10
2022-10-28T10:08:45.119Z,24.70
2022-10-28T10:11:30.669Z,24.40
2022-10-28T10:14:08.429Z,25.10
2022-10-28T10:16:54.117Z,25.80
2022-10-28T10:19:21.183Z,26.40
2022-10-28T10:21:49.941Z,27.20
2022-10-28T10:24:36.026Z,27.40
2022-10-28T10:27:10.178Z,27.20
2022-10-28T10:29:44.648Z,27.70
2022-10-28T10:32:30.768Z,28.00
2022-10-28T10:35:34.712Z,28.40
2022-10-28T10:38:05.358Z,29.10
2022-10-28T10:40:50.247Z,29.90
2022-10-28T10:43:34.456Z,30.30
2022-10-28T10:46:05.198Z,30.50
2022-10-28T10:48:38.802Z,30.50
2022-10-28T10:51:22.458Z,29.60
2022-10-28T10:53:54.617Z,28.90
2022-10-28T10:56:33.113Z,28.30
2022-10-28T10:59:22.331Z,28.10
2022-10-28T11:01:49.428Z,27.40
2022-10-28T11:04:18.926Z,26.80
2022-10-28T11:06:52.459Z,26.90
2022-10-28T11:09:39.067Z,26.80
2022-10-28T11:12:15.901Z,26.50
2022-10-28T11:15:01.486Z,27.00
2022-10-28T11:20:30.949Z,27.40
2022-10-28T11:23:42.400Z,27.80
2022-10-28T11:26:13.879Z,27.90
2022-10-28T11:29:07.499Z,27.50
2022-10-28T11:31:52.374Z,27.40
2022-10-28T11:34:56.354Z,27.30
2022-10-28T11:37:39.120Z,27.30
2022-10-28T11:40:54.883Z,28.10
2022-10-28T11:43:54.593Z,29.10
2022-10-28T11:46:43.394Z,30.20
2022-10-28T11:49:28.647Z,30.10
2022-10-28T11:52:29.897Z,30.60
2022-10-28T11:55:39.805Z,31.50
2022-10-28T11:58:44.066Z,31.80
2022-10-28T12:01:49.586Z,32.20
2022-10-28T12:05:16.886Z,33.50
2022-10-28T12:08:30.864Z,33.90
2022-10-28T12:11:21.555Z,32.70
2022-10-28T12:14:03.530Z,32.10
2022-10-28T12:16:45.244Z,31.30
2022-10-28T12:19:35.942Z,30.80
2022-10-28T12:22:22.094Z,30.00
2022-10-28T12:24:50.816Z,29.50
2022-10-28T12:27:26.293Z,29.10
2022-10-28T12:30:00.095Z,28.90
2022-10-28T12:32:31.321Z,29.20
2022-10-28T12:35:17.847Z,29.00
2022-10-28T12:38:15.381Z,28.80
2022-10-28T12:40:49.515Z,29.00
2022-10-28T12:43:30.178Z,28.60
2022-10-28T12:45:57.644Z,28.30
2022-10-28T12:48:45.691Z,28.10
2022-10-28T12:51:25.671Z,27.80
2022-10-28T12:54:04.821Z,27.50
2022-10-28T12:56:49.070Z,27.10
2022-10-28T12:59:35.469Z,27.00
2022-10-28T13:02:04.523Z,26.70
2022-10-28T13:04:31.575Z,26.50
2022-10-28T13:07:17.081Z,26.20
2022-10-28T13:13:26.627Z,25.90
2022-10-28T13:16:37.800Z,26.00
2022-10-28T13:19:49.229Z,25.60
2022-10-28T13:22:46.244Z,25.40
2022-10-28T13:25:58.628Z,25.30
2022-10-28T13:28:35.203Z,25.00
2022-10-28T13:31:07.316Z,24.90
2022-10-28T13:33:37.380Z,25.20
2022-10-28T13:36:30.113Z,25.30
2022-10-28T13:39:00.836Z,25.90
2022-10-28T13:41:30.780Z,27.40
2022-10-28T13:44:08.596Z,29.70
2022-10-28T13:47:00.309Z,31.70
2022-10-28T13:49:37.600Z,32.80
2022-10-28T13:52:07.298Z,33.60
2022-10-28T13:54:42.600Z,33.50
2022-10-28T13:57:30.961Z,33.70
2022-10-28T14:00:22.204Z,33.90
2022-10-28T14:02:58.871Z,34.30
2022-10-28T14:05:38.210Z,35.30
2022-10-28T14:08:26.950Z,35.00
2022-10-28T14:11:23.049Z,33.80
2022-10-28T14:13:55.844Z,33.50
2022-10-28T14:16:30.353Z,34.30
2022-10-28T14:19:11.265Z,35.10
2022-10-28T14:22:02.447Z,35.40
2022-10-28T14:24:44.752Z,35.40
2022-10-28T14:27:43.931Z,35.40
2022-10-28T14:30:20.188Z,35.60
2022-10-28T14:32:49.761Z,35.40
2022-10-28T14:35:16.554Z,35.00
2022-10-28T14:38:22.583Z,34.30
2022-10-28T14:41:30.065Z,34.00
2022-10-28T14:44:23.679Z,33.20
2022-10-28T14:47:48.917Z,32.50
2022-10-28T14:50:26.455Z,31.90
2022-10-28T14:52:55.571Z,31.40
2022-10-28T14:55:32.886Z,31.40
2022-10-28T14:58:37.111Z,31.40
2022-10-28T15:01:18.790Z,31.00
2022-10-28T15:04:01.003Z,29.80
2022-10-28T15:06:40.551Z,28.40
2022-10-28T15:09:25.378Z,27.10
2022-10-28T15:12:06.464Z,26.20
2022-10-28T15:14:42.406Z,25.40
2022-10-28T15:17:17.194Z,25.00
2022-10-28T15:19:53.473Z,24.40
2022-10-28T15:22:24.902Z,24.00
2022-10-28T15:25:10.498Z,23.60
2022-10-28T15:27:40.874Z,23.10
2022-10-28T15:30:23.678Z,22.80
2022-10-28T15:32:55.402Z,22.70
2022-10-28T15:35:32.725Z,22.50
2022-10-28T15:38:01.987Z,22.40
2022-10-28T15:40:34.664Z,22.40
2022-10-28T15:43:17.907Z,22.20
2022-10-28T15:45:45.831Z,21.90
2022-10-28T15:48:15.218Z,21.60
2022-10-28T15:50:42.376Z,21.30
2022-10-28T15:53:12.468Z,21.10
2022-10-28T15:58:35.992Z,20.70
2022-10-28T16:01:03.042Z,20.50
2022-10-28T16:03:47.228Z,20.40
2022-10-28T16:06:40.625Z,20.20
2022-10-28T16:09:20.363Z,20.00
2022-10-28T16:11:52.004Z,19.90
2022-10-28T16:14:42.308Z,19.80
2022-10-28T16:17:20.010Z,19.70
2022-10-28T16:20:16.968Z,19.60
2022-10-28T16:22:46.549Z,19.50
2022-10-28T16:25:17.540Z,19.40
2022-10-28T16:27:44.377Z,19.30
2022-10-28T16:30:11.902Z,19.20
2022-10-28T16:32:48.835Z,19.10
2022-10-28T16:35:23.012Z,19.10
2022-10-28T16:37:54.679Z,19.00
2022-10-28T16:40:49.693Z,18.90
2022-10-28T16:43:17.029Z,18.80
2022-10-28T16:45:43.836Z,18.80
2022-10-28T16:48:16.196Z,18.70
2022-10-28T16:51:01.800Z,18.70
2022-10-28T16:53:29.235Z,18.60
2022-10-28T16:55:58.928Z,18.50
2022-10-28T16:58:29.125Z,18.50
2022-10-28T17:00:57.512Z,18.40
2022-10-28T17:03:24.597Z,18.30
2022-10-28T17:05:52.057Z,18.20
2022-10-28T17:08:36.114Z,18.20
2022-10-28T17:11:04.620Z,18.20
2022-10-28T17:13:31.960Z,18.10
2022-10-28T17:15:58.747Z,18.10
2022-10-28T17:18:25.574Z,18.00
2022-10-28T17:21:02.945Z,17.90
2022-10-28T17:23:30.319Z,17.80
2022-10-28T17:26:02.366Z,17.70
2022-10-28T17:28:29.701Z,17.60
2022-10-28T17:31:05.267Z,17.50
2022-10-28T17:33:32.428Z,17.40
2022-10-28T17:36:08.541Z,17.30
2022-10-28T17:38:35.766Z,17.20
2022-10-28T17:41:02.639Z,17.20
2022-10-28T17:43:29.447Z,17.10
2022-10-28T17:46:07.216Z,17.10
2022-10-28T17:48:34.792Z,17.00
2022-10-28T17:51:01.710Z,16.90
2022-10-28T17:53:28.527Z,16.90
2022-10-28T17:56:00.383Z,16.80
2022-10-28T17:58:28.189Z,16.80
2022-10-28T18:01:08.647Z,16.70
2022-10-28T18:03:39.193Z,16.70
2022-10-28T18:06:13.138Z,16.70
2022-10-28T18:08:43.184Z,16.70
2022-10-28T18:11:13.736Z,16.70
2022-10-28T18:13:45.051Z,16.70
2022-10-28T18:16:16.192Z,16.70
2022-10-28T18:18:43.752Z,16.70
2022-10-28T18:21:11.933Z,16.70
2022-10-28T18:23:41.167Z,16.70
2022-10-28T18:26:14.524Z,16.70
2022-10-28T18:28:44.059Z,16.70
2022-10-28T18:31:14.557Z,16.60
2022-10-28T18:33:43.393Z,16.60
2022-10-28T18:36:33.979Z,16.70
2022-10-28T18:39:03.206Z,16.70
2022-10-28T18:41:32.146Z,16.70
2022-10-28T18:44:02.476Z,16.70
2022-10-28T18:46:33.188Z,16.60
2022-10-28T18:51:28.666Z,16.60
2022-10-28T18:53:57.012Z,16.60
2022-10-28T18:56:29.398Z,16.60
2022-10-28T18:58:58.112Z,16.60
2022-10-28T19:01:27.913Z,16.60
2022-10-28T19:03:57.575Z,16.60
2022-10-28T19:06:26.217Z,16.60
2022-10-28T19:08:57.619Z,16.50
2022-10-28T19:11:30.277Z,16.50
2022-10-28T19:14:05.882Z,16.40
2022-10-28T19:16:34.452Z,16.40
2022-10-28T19:19:03.597Z,16.40
2022-10-28T19:21:31.066Z,16.40
2022-10-28T19:23:58.352Z,16.40
2022-10-28T19:26:25.622Z,16.50
2022-10-28T19:28:52.945Z,16.50
2022-10-28T19:31:23.612Z,16.50
2022-10-28T19:33:53.983Z,16.30
2022-10-28T19:36:23.353Z,16.20
2022-10-28T19:38:53.950Z,16.20
2022-10-28T19:41:24.809Z,16.10
2022-10-28T19:43:58.926Z,16.10
2022-10-28T19:46:31.949Z,16.10
2022-10-28T19:49:01.208Z,16.00
2022-10-28T19:51:31.749Z,15.90
2022-10-28T19:54:05.627Z,15.90
2022-10-28T19:56:35.711Z,16.00
2022-10-28T19:59:04.467Z,15.80
2022-10-28T20:01:36.000Z,15.70
2022-10-28T20:04:04.259Z,15.60
2022-10-28T20:06:34.551Z,15.60
2022-10-28T20:09:01.896Z,15.60
2022-10-28T20:11:32.697Z,15.60
2022-10-28T20:14:04.039Z,15.60
2022-10-28T20:16:32.847Z,15.60
2022-10-28T20:19:00.394Z,15.50
2022-10-28T20:21:30.613Z,15.40
2022-10-28T20:23:58.160Z,15.30
2022-10-28T20:26:34.596Z,15.30
2022-10-28T20:29:03.057Z,15.40
2022-10-28T20:31:32.091Z,15.20
2022-10-28T20:34:03.415Z,15.10
2022-10-28T20:36:36.905Z,15.10
2022-10-28T20:39:12.559Z,15.10
2022-10-28T20:41:40.640Z,15.10
2022-10-28T20:44:08.110Z,15.10
2022-10-28T20:46:35.546Z,15.10
2022-10-28T20:49:03.488Z,15.10
2022-10-28T20:51:32.459Z,15.10
2022-10-28T20:54:00.079Z,15.10
2022-10-28T20:56:30.360Z,15.10
2022-10-28T20:59:00.883Z,15.10
2022-10-28T21:01:31.025Z,15.10
2022-10-28T21:04:00.824Z,15.10
2022-10-28T21:06:29.095Z,15.00
2022-10-28T21:08:56.560Z,15.00
2022-10-28T21:11:24.531Z,15.00
2022-10-28T21:13:58.523Z,14.90
2022-10-28T21:16:27.366Z,14.90
2022-10-28T21:18:54.660Z,14.80
2022-10-28T21:21:23.840Z,14.80
2022-10-28T21:23:51.146Z,14.70
2022-10-28T21:26:17.966Z,14.70
2022-10-28T21:28:48.764Z,14.70
2022-10-28T21:31:18.005Z,14.70
2022-10-28T21:33:45.498Z,14.70
2022-10-28T21:36:18.468Z,14.70
2022-10-28T21:38:45.600Z,14.60
2022-10-28T21:41:20.178Z,14.70
2022-10-28T21:43:50.178Z,14.70
2022-10-28T21:46:21.870Z,14.70
2022-10-28T21:48:48.988Z,14.60
2022-10-28T21:51:17.077Z,14.50
2022-10-28T21:53:45.153Z,14.60
2022-10-28T21:56:17.659Z,14.60
2022-10-28T21:58:47.402Z,14.60
2022-10-28T22:01:22.270Z,14.60
2022-10-28T22:03:51.000Z,14.60
2022-10-28T22:06:17.826Z,14.60
2022-10-28T22:08:44.824Z,14.60
2022-10-28T22:11:20.749Z,14.50
2022-10-28T22:14:02.584Z,14.60
2022-10-28T22:16:32.787Z,14.60
2022-10-28T22:19:03.360Z,14.60
2022-10-28T22:21:33.929Z,14.60
2022-10-28T22:24:01.080Z,14.60
2022-10-28T22:26:30.610Z,14.40
2022-10-28T22:28:58.120Z,14.40
2022-10-28T22:31:28.720Z,14.30
2022-10-28T22:33:56.911Z,14.20
2022-10-28T22:36:26.487Z,14.10
2022-10-28T22:38:53.723Z,13.90
2022-10-28T22:41:23.953Z,13.90
2022-10-28T22:43:56.599Z,13.80
2022-10-28T22:46:27.381Z,13.70
2022-10-28T22:48:54.958Z,13.70
2022-10-28T22:51:22.784Z,13.60
2022-10-28T22:53:49.883Z,13.50
2022-10-28T22:56:20.297Z,13.50
2022-10-28T22:58:48.578Z,13.30
2022-10-28T23:01:18.847Z,13.40
2022-10-28T23:03:48.717Z,13.30
2022-10-28T23:06:18.137Z,13.20
2022-10-28T23:08:45.842Z,13.10
2022-10-28T23:11:14.840Z,13.00
2022-10-28T23:13:41.674Z,13.00
2022-10-28T23:16:11.743Z,13.00
2022-10-28T23:18:39.053Z,12.80
2022-10-28T23:21:23.716Z,12.80
2022-10-28T23:23:59.092Z,12.80
2022-10-28T23:26:28.650Z,12.70
2022-10-28T23:28:58.743Z,12.70
2022-10-28T23:31:26.456Z,12.70
2022-10-28T23:33:54.892Z,12.50
2022-10-28T23:36:22.263Z,12.40
2022-10-28T23:38:49.083Z,12.40
2022-10-28T23:41:18.707Z,12.40
2022-10-28T23:43:47.104Z,12.30
2022-10-28T23:46:13.949Z,12.30
2022-10-28T23:48:40.753Z,12.30
2022-10-28T23:51:08.095Z,12.30
2022-10-28T23:53:35.293Z,12.20
2022-10-28T23:56:02.102Z,12.20
2022-10-28T23:58:28.970Z,12.20
